sensor_id;sensor_type;location;lat;lon;timestamp;P1;durP1;ratioP1;P2;durP2;ratioP2
67554;SDS011;54385;53.516;49.456;2023-09-19T00:00:37;2.88;;;2.58;;
67554;SDS011;54385;53.516;49.456;2023-09-19T00:03:04;2.80;;;2.50;;
67554;SDS011;54385;53.516;49.456;2023-09-19T00:05:35;3.53;;;2.70;;
67554;SDS011;54385;53.516;49.456;2023-09-19T00:08:04;2.92;;;2.63;;
67554;SDS011;54385;53.516;49.456;2023-09-19T00:10:32;3.80;;;3.03;;
67554;SDS011;54385;53.516;49.456;2023-09-19T00:13:01;3.40;;;2.65;;
67554;SDS011;54385;53.516;49.456;2023-09-19T00:15:36;3.30;;;2.65;;
67554;SDS011;54385;53.516;49.456;2023-09-19T00:18:07;3.40;;;2.90;;
67554;SDS011;54385;53.516;49.456;2023-09-19T00:20:37;3.72;;;2.53;;
67554;SDS011;54385;53.516;49.456;2023-09-19T00:23:04;2.88;;;2.40;;
67554;SDS011;54385;53.516;49.456;2023-09-19T00:25:34;3.17;;;2.88;;
67554;SDS011;54385;53.516;49.456;2023-09-19T00:28:04;2.95;;;2.65;;
67554;SDS011;54385;53.516;49.456;2023-09-19T00:30:32;3.00;;;2.72;;
67554;SDS011;54385;53.516;49.456;2023-09-19T00:32:59;3.22;;;2.92;;
67554;SDS011;54385;53.516;49.456;2023-09-19T00:35:27;3.38;;;2.70;;
67554;SDS011;54385;53.516;49.456;2023-09-19T00:37:53;3.05;;;2.72;;
67554;SDS011;54385;53.516;49.456;2023-09-19T00:40:21;3.75;;;3.20;;
67554;SDS011;54385;53.516;49.456;2023-09-19T00:42:48;3.53;;;2.75;;
67554;SDS011;54385;53.516;49.456;2023-09-19T00:45:18;2.78;;;2.58;;
67554;SDS011;54385;53.516;49.456;2023-09-19T00:47:47;3.47;;;2.72;;
67554;SDS011;54385;53.516;49.456;2023-09-19T00:50:21;3.22;;;2.63;;
67554;SDS011;54385;53.516;49.456;2023-09-19T00:52:50;3.88;;;3.20;;
67554;SDS011;54385;53.516;49.456;2023-09-19T00:55:22;3.25;;;2.95;;
67554;SDS011;54385;53.516;49.456;2023-09-19T00:57:50;3.45;;;2.47;;
67554;SDS011;54385;53.516;49.456;2023-09-19T01:00:18;3.13;;;2.83;;
67554;SDS011;54385;53.516;49.456;2023-09-19T01:02:46;3.78;;;2.78;;
67554;SDS011;54385;53.516;49.456;2023-09-19T01:05:13;2.85;;;2.55;;
67554;SDS011;54385;53.516;49.456;2023-09-19T01:07:41;3.13;;;2.70;;
67554;SDS011;54385;53.516;49.456;2023-09-19T01:10:09;4.43;;;3.03;;
67554;SDS011;54385;53.516;49.456;2023-09-19T01:21:28;3.42;;;2.90;;
67554;SDS011;54385;53.516;49.456;2023-09-19T01:27:06;3.10;;;2.80;;
67554;SDS011;54385;53.516;49.456;2023-09-19T01:29:43;2.80;;;2.35;;
67554;SDS011;54385;53.516;49.456;2023-09-19T01:32:19;2.95;;;2.63;;
67554;SDS011;54385;53.516;49.456;2023-09-19T01:34:54;3.40;;;2.60;;
67554;SDS011;54385;53.516;49.456;2023-09-19T01:37:30;3.45;;;2.80;;
67554;SDS011;54385;53.516;49.456;2023-09-19T01:39:59;3.75;;;3.15;;
67554;SDS011;54385;53.516;49.456;2023-09-19T01:42:32;3.63;;;3.20;;
67554;SDS011;54385;53.516;49.456;2023-09-19T01:45:16;3.83;;;2.63;;
67554;SDS011;54385;53.516;49.456;2023-09-19T01:47:54;3.45;;;3.10;;
67554;SDS011;54385;53.516;49.456;2023-09-19T01:50:38;3.30;;;3.00;;
67554;SDS011;54385;53.516;49.456;2023-09-19T01:53:17;3.67;;;3.03;;
67554;SDS011;54385;53.516;49.456;2023-09-19T01:56:04;4.05;;;2.80;;
67554;SDS011;54385;53.516;49.456;2023-09-19T01:58:37;3.45;;;2.65;;
67554;SDS011;54385;53.516;49.456;2023-09-19T02:01:09;3.13;;;2.83;;
67554;SDS011;54385;53.516;49.456;2023-09-19T02:03:40;3.30;;;3.00;;
67554;SDS011;54385;53.516;49.456;2023-09-19T02:06:17;3.58;;;3.28;;
67554;SDS011;54385;53.516;49.456;2023-09-19T02:08:45;3.35;;;2.63;;
67554;SDS011;54385;53.516;49.456;2023-09-19T02:11:13;3.85;;;3.03;;
67554;SDS011;54385;53.516;49.456;2023-09-19T02:13:40;3.28;;;2.97;;
67554;SDS011;54385;53.516;49.456;2023-09-19T02:16:14;3.67;;;3.17;;
67554;SDS011;54385;53.516;49.456;2023-09-19T02:18:43;3.35;;;2.75;;
67554;SDS011;54385;53.516;49.456;2023-09-19T02:21:19;3.20;;;2.90;;
67554;SDS011;54385;53.516;49.456;2023-09-19T02:23:47;3.08;;;2.72;;
67554;SDS011;54385;53.516;49.456;2023-09-19T02:26:14;3.95;;;2.97;;
67554;SDS011;54385;53.516;49.456;2023-09-19T02:28:42;3.50;;;3.00;;
67554;SDS011;54385;53.516;49.456;2023-09-19T02:31:09;4.30;;;3.28;;
67554;SDS011;54385;53.516;49.456;2023-09-19T02:33:37;3.63;;;3.03;;
67554;SDS011;54385;53.516;49.456;2023-09-19T02:36:04;3.45;;;3.03;;
67554;SDS011;54385;53.516;49.456;2023-09-19T02:38:31;3.20;;;2.75;;
67554;SDS011;54385;53.516;49.456;2023-09-19T02:40:58;3.63;;;2.85;;
67554;SDS011;54385;53.516;49.456;2023-09-19T02:43:25;3.95;;;2.90;;
67554;SDS011;54385;53.516;49.456;2023-09-19T02:45:52;3.70;;;2.60;;
67554;SDS011;54385;53.516;49.456;2023-09-19T02:48:22;3.78;;;2.67;;
67554;SDS011;54385;53.516;49.456;2023-09-19T02:50:50;3.10;;;2.80;;
67554;SDS011;54385;53.516;49.456;2023-09-19T02:53:25;3.33;;;3.00;;
67554;SDS011;54385;53.516;49.456;2023-09-19T02:55:51;3.50;;;2.75;;
67554;SDS011;54385;53.516;49.456;2023-09-19T02:58:18;3.60;;;2.97;;
67554;SDS011;54385;53.516;49.456;2023-09-19T03:00:45;3.65;;;2.88;;
67554;SDS011;54385;53.516;49.456;2023-09-19T03:03:15;3.40;;;2.58;;
67554;SDS011;54385;53.516;49.456;2023-09-19T03:05:42;3.22;;;2.92;;
67554;SDS011;54385;53.516;49.456;2023-09-19T03:08:13;4.15;;;3.05;;
67554;SDS011;54385;53.516;49.456;2023-09-19T03:10:45;3.30;;;2.97;;
67554;SDS011;54385;53.516;49.456;2023-09-19T03:13:14;3.20;;;2.90;;
67554;SDS011;54385;53.516;49.456;2023-09-19T03:15:41;5.82;;;4.15;;
67554;SDS011;54385;53.516;49.456;2023-09-19T03:18:12;8.38;;;3.78;;
67554;SDS011;54385;53.516;49.456;2023-09-19T03:20:39;5.75;;;4.05;;
67554;SDS011;54385;53.516;49.456;2023-09-19T03:23:05;6.90;;;4.45;;
67554;SDS011;54385;53.516;49.456;2023-09-19T03:25:33;9.80;;;4.43;;
67554;SDS011;54385;53.516;49.456;2023-09-19T03:28:02;7.65;;;4.75;;
67554;SDS011;54385;53.516;49.456;2023-09-19T03:30:31;9.25;;;5.43;;
67554;SDS011;54385;53.516;49.456;2023-09-19T03:33:02;7.35;;;5.25;;
67554;SDS011;54385;53.516;49.456;2023-09-19T03:35:30;7.38;;;5.00;;
67554;SDS011;54385;53.516;49.456;2023-09-19T03:37:57;10.35;;;5.72;;
67554;SDS011;54385;53.516;49.456;2023-09-19T03:40:23;9.20;;;5.00;;
67554;SDS011;54385;53.516;49.456;2023-09-19T03:42:54;7.78;;;5.65;;
67554;SDS011;54385;53.516;49.456;2023-09-19T03:45:23;8.43;;;5.57;;
67554;SDS011;54385;53.516;49.456;2023-09-19T03:47:50;7.60;;;5.15;;
67554;SDS011;54385;53.516;49.456;2023-09-19T03:50:20;9.30;;;5.40;;
67554;SDS011;54385;53.516;49.456;2023-09-19T03:52:46;9.98;;;5.82;;
67554;SDS011;54385;53.516;49.456;2023-09-19T03:55:13;10.98;;;5.40;;
67554;SDS011;54385;53.516;49.456;2023-09-19T03:57:39;9.88;;;4.85;;
67554;SDS011;54385;53.516;49.456;2023-09-19T04:00:10;9.00;;;4.72;;
67554;SDS011;54385;53.516;49.456;2023-09-19T04:02:40;8.02;;;5.30;;
67554;SDS011;54385;53.516;49.456;2023-09-19T04:05:07;6.95;;;5.05;;
67554;SDS011;54385;53.516;49.456;2023-09-19T04:07:33;10.30;;;4.85;;
67554;SDS011;54385;53.516;49.456;2023-09-19T04:10:00;8.90;;;5.80;;
67554;SDS011;54385;53.516;49.456;2023-09-19T04:12:27;11.70;;;5.72;;
67554;SDS011;54385;53.516;49.456;2023-09-19T04:14:54;8.60;;;4.93;;
67554;SDS011;54385;53.516;49.456;2023-09-19T04:17:20;10.35;;;5.53;;
67554;SDS011;54385;53.516;49.456;2023-09-19T04:19:47;9.27;;;5.75;;
67554;SDS011;54385;53.516;49.456;2023-09-19T04:22:13;10.32;;;5.93;;
67554;SDS011;54385;53.516;49.456;2023-09-19T04:24:40;16.27;;;6.05;;
67554;SDS011;54385;53.516;49.456;2023-09-19T04:27:06;9.52;;;6.22;;
67554;SDS011;54385;53.516;49.456;2023-09-19T04:29:33;14.25;;;5.75;;
67554;SDS011;54385;53.516;49.456;2023-09-19T04:32:00;19.48;;;5.53;;
67554;SDS011;54385;53.516;49.456;2023-09-19T04:34:29;11.35;;;5.38;;
67554;SDS011;54385;53.516;49.456;2023-09-19T04:36:56;9.82;;;5.97;;
67554;SDS011;54385;53.516;49.456;2023-09-19T04:39:25;9.93;;;5.63;;
67554;SDS011;54385;53.516;49.456;2023-09-19T04:41:51;11.13;;;5.40;;
67554;SDS011;54385;53.516;49.456;2023-09-19T04:44:19;8.48;;;5.05;;
67554;SDS011;54385;53.516;49.456;2023-09-19T04:46:48;11.20;;;5.43;;
67554;SDS011;54385;53.516;49.456;2023-09-19T04:49:15;16.98;;;5.80;;
67554;SDS011;54385;53.516;49.456;2023-09-19T04:51:42;8.43;;;4.68;;
67554;SDS011;54385;53.516;49.456;2023-09-19T04:54:08;8.77;;;4.78;;
67554;SDS011;54385;53.516;49.456;2023-09-19T04:56:35;9.00;;;4.57;;
67554;SDS011;54385;53.516;49.456;2023-09-19T04:59:02;9.38;;;4.72;;
67554;SDS011;54385;53.516;49.456;2023-09-19T05:01:29;8.57;;;5.07;;
67554;SDS011;54385;53.516;49.456;2023-09-19T05:03:56;9.80;;;5.13;;
67554;SDS011;54385;53.516;49.456;2023-09-19T05:06:26;8.88;;;5.40;;
67554;SDS011;54385;53.516;49.456;2023-09-19T05:08:53;12.52;;;5.65;;
67554;SDS011;54385;53.516;49.456;2023-09-19T05:11:20;12.70;;;5.35;;
67554;SDS011;54385;53.516;49.456;2023-09-19T05:13:48;10.20;;;5.30;;
67554;SDS011;54385;53.516;49.456;2023-09-19T05:16:22;10.73;;;5.30;;
67554;SDS011;54385;53.516;49.456;2023-09-19T05:18:48;8.15;;;5.40;;
67554;SDS011;54385;53.516;49.456;2023-09-19T05:21:15;8.90;;;4.90;;
67554;SDS011;54385;53.516;49.456;2023-09-19T05:23:43;8.13;;;4.60;;
67554;SDS011;54385;53.516;49.456;2023-09-19T05:26:16;10.88;;;5.63;;
67554;SDS011;54385;53.516;49.456;2023-09-19T05:28:50;8.05;;;4.95;;
67554;SDS011;54385;53.516;49.456;2023-09-19T05:31:22;11.07;;;4.93;;
67554;SDS011;54385;53.516;49.456;2023-09-19T05:33:51;11.80;;;4.90;;
67554;SDS011;54385;53.516;49.456;2023-09-19T05:36:20;12.90;;;5.00;;
67554;SDS011;54385;53.516;49.456;2023-09-19T05:38:50;11.80;;;5.25;;
67554;SDS011;54385;53.516;49.456;2023-09-19T05:41:22;10.93;;;4.90;;
67554;SDS011;54385;53.516;49.456;2023-09-19T05:43:51;11.38;;;4.95;;
67554;SDS011;54385;53.516;49.456;2023-09-19T05:46:18;14.32;;;5.15;;
67554;SDS011;54385;53.516;49.456;2023-09-19T05:48:48;8.13;;;5.13;;
67554;SDS011;54385;53.516;49.456;2023-09-19T05:51:15;11.35;;;4.70;;
67554;SDS011;54385;53.516;49.456;2023-09-19T05:53:46;7.63;;;4.30;;
67554;SDS011;54385;53.516;49.456;2023-09-19T05:56:14;9.75;;;5.00;;
67554;SDS011;54385;53.516;49.456;2023-09-19T05:58:40;9.60;;;4.80;;
67554;SDS011;54385;53.516;49.456;2023-09-19T06:01:10;6.72;;;4.75;;
67554;SDS011;54385;53.516;49.456;2023-09-19T06:03:36;11.73;;;5.38;;
67554;SDS011;54385;53.516;49.456;2023-09-19T06:06:03;9.43;;;4.68;;
67554;SDS011;54385;53.516;49.456;2023-09-19T06:08:32;9.85;;;4.82;;
67554;SDS011;54385;53.516;49.456;2023-09-19T06:11:02;11.07;;;4.57;;
67554;SDS011;54385;53.516;49.456;2023-09-19T06:13:31;6.85;;;4.60;;
67554;SDS011;54385;53.516;49.456;2023-09-19T06:15:59;8.85;;;5.15;;
67554;SDS011;54385;53.516;49.456;2023-09-19T06:18:31;7.57;;;4.30;;
67554;SDS011;54385;53.516;49.456;2023-09-19T06:21:00;7.75;;;4.60;;
67554;SDS011;54385;53.516;49.456;2023-09-19T06:23:36;8.70;;;4.50;;
67554;SDS011;54385;53.516;49.456;2023-09-19T06:26:02;7.28;;;4.20;;
67554;SDS011;54385;53.516;49.456;2023-09-19T06:28:32;7.75;;;4.72;;
67554;SDS011;54385;53.516;49.456;2023-09-19T06:30:59;8.88;;;4.40;;
67554;SDS011;54385;53.516;49.456;2023-09-19T06:33:28;10.10;;;4.57;;
67554;SDS011;54385;53.516;49.456;2023-09-19T06:35:57;6.70;;;4.40;;
67554;SDS011;54385;53.516;49.456;2023-09-19T06:38:26;10.45;;;5.15;;
67554;SDS011;54385;53.516;49.456;2023-09-19T06:40:52;9.80;;;4.65;;
67554;SDS011;54385;53.516;49.456;2023-09-19T06:43:22;8.13;;;4.38;;
67554;SDS011;54385;53.516;49.456;2023-09-19T06:45:49;9.25;;;4.53;;
67554;SDS011;54385;53.516;49.456;2023-09-19T06:48:17;6.95;;;3.63;;
67554;SDS011;54385;53.516;49.456;2023-09-19T06:50:48;6.05;;;3.92;;
67554;SDS011;54385;53.516;49.456;2023-09-19T06:53:15;8.25;;;4.00;;
67554;SDS011;54385;53.516;49.456;2023-09-19T06:55:42;8.80;;;4.53;;
67554;SDS011;54385;53.516;49.456;2023-09-19T06:58:09;6.45;;;4.18;;
67554;SDS011;54385;53.516;49.456;2023-09-19T07:00:42;7.03;;;4.68;;
67554;SDS011;54385;53.516;49.456;2023-09-19T07:03:12;5.88;;;4.15;;
67554;SDS011;54385;53.516;49.456;2023-09-19T07:05:47;8.23;;;4.40;;
67554;SDS011;54385;53.516;49.456;2023-09-19T07:08:14;8.43;;;4.20;;
67554;SDS011;54385;53.516;49.456;2023-09-19T07:10:41;11.68;;;4.35;;
67554;SDS011;54385;53.516;49.456;2023-09-19T07:13:14;7.90;;;4.03;;
67554;SDS011;54385;53.516;49.456;2023-09-19T07:15:43;7.93;;;4.45;;
67554;SDS011;54385;53.516;49.456;2023-09-19T07:18:13;7.45;;;4.10;;
67554;SDS011;54385;53.516;49.456;2023-09-19T07:20:45;7.22;;;4.75;;
67554;SDS011;54385;53.516;49.456;2023-09-19T07:23:18;10.32;;;4.38;;
67554;SDS011;54385;53.516;49.456;2023-09-19T07:25:48;8.15;;;4.22;;
67554;SDS011;54385;53.516;49.456;2023-09-19T07:28:15;10.65;;;4.50;;
67554;SDS011;54385;53.516;49.456;2023-09-19T07:30:44;7.13;;;4.75;;
67554;SDS011;54385;53.516;49.456;2023-09-19T07:33:11;9.88;;;4.57;;
67554;SDS011;54385;53.516;49.456;2023-09-19T07:35:38;7.93;;;3.97;;
67554;SDS011;54385;53.516;49.456;2023-09-19T07:38:08;8.88;;;3.85;;
67554;SDS011;54385;53.516;49.456;2023-09-19T07:40:37;5.75;;;3.85;;
67554;SDS011;54385;53.516;49.456;2023-09-19T07:43:03;8.73;;;4.45;;
67554;SDS011;54385;53.516;49.456;2023-09-19T07:45:38;8.60;;;3.92;;
67554;SDS011;54385;53.516;49.456;2023-09-19T07:48:08;9.18;;;4.97;;
67554;SDS011;54385;53.516;49.456;2023-09-19T07:50:40;10.90;;;4.40;;
67554;SDS011;54385;53.516;49.456;2023-09-19T07:53:09;8.45;;;4.18;;
67554;SDS011;54385;53.516;49.456;2023-09-19T07:55:39;9.70;;;3.55;;
67554;SDS011;54385;53.516;49.456;2023-09-19T07:58:09;7.40;;;3.80;;
67554;SDS011;54385;53.516;49.456;2023-09-19T08:00:48;8.98;;;4.00;;
67554;SDS011;54385;53.516;49.456;2023-09-19T08:03:22;9.60;;;4.10;;
67554;SDS011;54385;53.516;49.456;2023-09-19T08:05:50;11.45;;;4.25;;
67554;SDS011;54385;53.516;49.456;2023-09-19T08:08:17;10.82;;;4.07;;
67554;SDS011;54385;53.516;49.456;2023-09-19T08:10:44;6.95;;;3.83;;
67554;SDS011;54385;53.516;49.456;2023-09-19T08:13:15;7.57;;;3.80;;
67554;SDS011;54385;53.516;49.456;2023-09-19T08:15:46;10.95;;;4.00;;
67554;SDS011;54385;53.516;49.456;2023-09-19T08:18:17;7.15;;;3.90;;
67554;SDS011;54385;53.516;49.456;2023-09-19T08:20:49;10.20;;;4.00;;
67554;SDS011;54385;53.516;49.456;2023-09-19T08:23:21;6.85;;;3.72;;
67554;SDS011;54385;53.516;49.456;2023-09-19T08:25:55;8.77;;;4.05;;
67554;SDS011;54385;53.516;49.456;2023-09-19T08:28:38;10.68;;;3.35;;
67554;SDS011;54385;53.516;49.456;2023-09-19T08:31:19;8.60;;;3.88;;
67554;SDS011;54385;53.516;49.456;2023-09-19T08:33:47;5.70;;;3.65;;
67554;SDS011;54385;53.516;49.456;2023-09-19T08:36:18;8.45;;;3.28;;
67554;SDS011;54385;53.516;49.456;2023-09-19T08:39:00;6.82;;;3.47;;
67554;SDS011;54385;53.516;49.456;2023-09-19T08:41:36;7.53;;;3.22;;
67554;SDS011;54385;53.516;49.456;2023-09-19T08:44:06;9.50;;;3.60;;
67554;SDS011;54385;53.516;49.456;2023-09-19T08:46:34;6.72;;;3.17;;
67554;SDS011;54385;53.516;49.456;2023-09-19T08:49:16;6.53;;;3.00;;
67554;SDS011;54385;53.516;49.456;2023-09-19T08:51:53;5.90;;;3.28;;
67554;SDS011;54385;53.516;49.456;2023-09-19T08:54:28;7.75;;;3.35;;
67554;SDS011;54385;53.516;49.456;2023-09-19T08:57:09;6.03;;;3.30;;
67554;SDS011;54385;53.516;49.456;2023-09-19T08:59:38;6.05;;;3.05;;
67554;SDS011;54385;53.516;49.456;2023-09-19T09:02:10;5.97;;;3.25;;
67554;SDS011;54385;53.516;49.456;2023-09-19T09:04:41;5.72;;;2.90;;
67554;SDS011;54385;53.516;49.456;2023-09-19T09:07:10;5.85;;;3.05;;
67554;SDS011;54385;53.516;49.456;2023-09-19T09:09:46;6.43;;;3.00;;
67554;SDS011;54385;53.516;49.456;2023-09-19T09:12:18;5.03;;;3.17;;
67554;SDS011;54385;53.516;49.456;2023-09-19T09:14:52;6.45;;;2.65;;
67554;SDS011;54385;53.516;49.456;2023-09-19T09:17:19;5.60;;;2.25;;
67554;SDS011;54385;53.516;49.456;2023-09-19T09:19:46;7.95;;;3.30;;
67554;SDS011;54385;53.516;49.456;2023-09-19T09:22:18;6.78;;;2.90;;
67554;SDS011;54385;53.516;49.456;2023-09-19T09:24:53;6.50;;;2.63;;
67554;SDS011;54385;53.516;49.456;2023-09-19T09:27:32;6.63;;;3.60;;
67554;SDS011;54385;53.516;49.456;2023-09-19T09:29:59;5.13;;;2.85;;
67554;SDS011;54385;53.516;49.456;2023-09-19T09:32:30;5.18;;;2.72;;
67554;SDS011;54385;53.516;49.456;2023-09-19T09:35:07;5.07;;;2.72;;
67554;SDS011;54385;53.516;49.456;2023-09-19T09:37:43;5.28;;;2.85;;
67554;SDS011;54385;53.516;49.456;2023-09-19T09:40:14;5.97;;;3.03;;
67554;SDS011;54385;53.516;49.456;2023-09-19T09:42:45;6.45;;;2.50;;
67554;SDS011;54385;53.516;49.456;2023-09-19T09:45:13;7.25;;;2.83;;
67554;SDS011;54385;53.516;49.456;2023-09-19T09:47:48;4.22;;;2.40;;
67554;SDS011;54385;53.516;49.456;2023-09-19T09:50:26;3.05;;;2.30;;
67554;SDS011;54385;53.516;49.456;2023-09-19T09:53:21;6.25;;;2.40;;
67554;SDS011;54385;53.516;49.456;2023-09-19T09:56:00;3.58;;;2.22;;
67554;SDS011;54385;53.516;49.456;2023-09-19T09:58:58;4.65;;;2.30;;
67554;SDS011;54385;53.516;49.456;2023-09-19T10:01:45;3.55;;;2.22;;
67554;SDS011;54385;53.516;49.456;2023-09-19T10:04:29;6.32;;;2.50;;
67554;SDS011;54385;53.516;49.456;2023-09-19T10:07:02;4.32;;;2.42;;
67554;SDS011;54385;53.516;49.456;2023-09-19T10:09:44;7.63;;;2.35;;
67554;SDS011;54385;53.516;49.456;2023-09-19T10:12:13;4.53;;;2.30;;
67554;SDS011;54385;53.516;49.456;2023-09-19T10:14:42;5.32;;;2.35;;
67554;SDS011;54385;53.516;49.456;2023-09-19T10:17:13;4.95;;;2.08;;
67554;SDS011;54385;53.516;49.456;2023-09-19T10:22:27;4.75;;;2.38;;
67554;SDS011;54385;53.516;49.456;2023-09-19T10:24:58;4.68;;;2.78;;
67554;SDS011;54385;53.516;49.456;2023-09-19T10:27:27;4.05;;;2.35;;
67554;SDS011;54385;53.516;49.456;2023-09-19T10:30:04;3.30;;;2.17;;
67554;SDS011;54385;53.516;49.456;2023-09-19T10:32:34;4.70;;;2.50;;
67554;SDS011;54385;53.516;49.456;2023-09-19T10:35:07;5.22;;;2.47;;
67554;SDS011;54385;53.516;49.456;2023-09-19T10:37:34;3.85;;;1.90;;
67554;SDS011;54385;53.516;49.456;2023-09-19T10:40:04;4.90;;;2.67;;
67554;SDS011;54385;53.516;49.456;2023-09-19T10:42:40;3.78;;;2.40;;
67554;SDS011;54385;53.516;49.456;2023-09-19T10:45:08;3.42;;;2.05;;
67554;SDS011;54385;53.516;49.456;2023-09-19T10:47:39;3.70;;;2.20;;
67554;SDS011;54385;53.516;49.456;2023-09-19T10:50:08;3.72;;;2.00;;
67554;SDS011;54385;53.516;49.456;2023-09-19T10:52:39;3.65;;;2.10;;
67554;SDS011;54385;53.516;49.456;2023-09-19T10:55:08;3.00;;;2.15;;
67554;SDS011;54385;53.516;49.456;2023-09-19T10:57:44;2.90;;;2.10;;
67554;SDS011;54385;53.516;49.456;2023-09-19T11:00:12;2.78;;;1.90;;
67554;SDS011;54385;53.516;49.456;2023-09-19T11:05:40;3.22;;;2.00;;
67554;SDS011;54385;53.516;49.456;2023-09-19T11:08:08;2.60;;;2.10;;
67554;SDS011;54385;53.516;49.456;2023-09-19T11:10:45;2.95;;;2.30;;
67554;SDS011;54385;53.516;49.456;2023-09-19T11:13:23;3.83;;;2.13;;
67554;SDS011;54385;53.516;49.456;2023-09-19T11:26:50;4.15;;;2.15;;
67554;SDS011;54385;53.516;49.456;2023-09-19T11:29:27;3.75;;;2.15;;
67554;SDS011;54385;53.516;49.456;2023-09-19T11:31:55;4.50;;;2.20;;
67554;SDS011;54385;53.516;49.456;2023-09-19T11:34:40;3.72;;;2.00;;
67554;SDS011;54385;53.516;49.456;2023-09-19T11:42:48;4.13;;;2.00;;
67554;SDS011;54385;53.516;49.456;2023-09-19T11:48:37;4.45;;;2.20;;
67554;SDS011;54385;53.516;49.456;2023-09-19T11:54:43;3.70;;;1.90;;
67554;SDS011;54385;53.516;49.456;2023-09-19T11:57:20;3.03;;;1.80;;
67554;SDS011;54385;53.516;49.456;2023-09-19T12:00:19;5.20;;;1.92;;
67554;SDS011;54385;53.516;49.456;2023-09-19T12:02:49;2.38;;;1.90;;
67554;SDS011;54385;53.516;49.456;2023-09-19T12:05:30;3.80;;;1.95;;
67554;SDS011;54385;53.516;49.456;2023-09-19T12:08:05;2.78;;;2.00;;
67554;SDS011;54385;53.516;49.456;2023-09-19T12:13:27;3.60;;;1.90;;
67554;SDS011;54385;53.516;49.456;2023-09-19T12:15:55;2.95;;;1.80;;
67554;SDS011;54385;53.516;49.456;2023-09-19T12:18:28;3.83;;;1.83;;
67554;SDS011;54385;53.516;49.456;2023-09-19T12:20:55;3.05;;;1.63;;
67554;SDS011;54385;53.516;49.456;2023-09-19T12:23:24;2.50;;;1.85;;
67554;SDS011;54385;53.516;49.456;2023-09-19T12:25:54;3.03;;;1.80;;
67554;SDS011;54385;53.516;49.456;2023-09-19T12:28:28;2.13;;;1.67;;
67554;SDS011;54385;53.516;49.456;2023-09-19T12:31:08;4.28;;;1.90;;
67554;SDS011;54385;53.516;49.456;2023-09-19T12:33:35;2.60;;;1.58;;
67554;SDS011;54385;53.516;49.456;2023-09-19T12:36:18;2.00;;;1.80;;
67554;SDS011;54385;53.516;49.456;2023-09-19T12:38:55;2.53;;;1.80;;
67554;SDS011;54385;53.516;49.456;2023-09-19T12:41:25;2.47;;;1.80;;
67554;SDS011;54385;53.516;49.456;2023-09-19T12:43:55;3.92;;;1.60;;
67554;SDS011;54385;53.516;49.456;2023-09-19T12:49:17;3.78;;;1.55;;
67554;SDS011;54385;53.516;49.456;2023-09-19T12:52:07;2.03;;;1.60;;
67554;SDS011;54385;53.516;49.456;2023-09-19T12:54:39;2.15;;;1.55;;
67554;SDS011;54385;53.516;49.456;2023-09-19T12:57:23;6.10;;;1.85;;
67554;SDS011;54385;53.516;49.456;2023-09-19T12:59:55;2.97;;;1.60;;
67554;SDS011;54385;53.516;49.456;2023-09-19T13:02:33;3.25;;;1.85;;
67554;SDS011;54385;53.516;49.456;2023-09-19T13:04:59;3.13;;;1.77;;
67554;SDS011;54385;53.516;49.456;2023-09-19T13:07:47;2.17;;;1.40;;
67554;SDS011;54385;53.516;49.456;2023-09-19T13:10:15;3.10;;;1.70;;
67554;SDS011;54385;53.516;49.456;2023-09-19T13:12:43;2.30;;;1.55;;
67554;SDS011;54385;53.516;49.456;2023-09-19T13:15:15;2.30;;;1.40;;
67554;SDS011;54385;53.516;49.456;2023-09-19T13:17:46;3.47;;;1.70;;
67554;SDS011;54385;53.516;49.456;2023-09-19T13:20:25;3.08;;;1.75;;
67554;SDS011;54385;53.516;49.456;2023-09-19T13:22:58;2.88;;;1.50;;
67554;SDS011;54385;53.516;49.456;2023-09-19T13:25:25;2.08;;;1.70;;
67554;SDS011;54385;53.516;49.456;2023-09-19T13:27:56;2.20;;;1.55;;
67554;SDS011;54385;53.516;49.456;2023-09-19T13:30:27;2.20;;;1.60;;
67554;SDS011;54385;53.516;49.456;2023-09-19T13:33:08;1.83;;;1.50;;
67554;SDS011;54385;53.516;49.456;2023-09-19T13:35:39;2.30;;;1.58;;
67554;SDS011;54385;53.516;49.456;2023-09-19T13:42:07;2.72;;;1.80;;
67554;SDS011;54385;53.516;49.456;2023-09-19T13:44:37;2.33;;;1.60;;
67554;SDS011;54385;53.516;49.456;2023-09-19T13:47:04;2.20;;;1.50;;
67554;SDS011;54385;53.516;49.456;2023-09-19T13:49:36;2.22;;;1.55;;
67554;SDS011;54385;53.516;49.456;2023-09-19T13:52:04;3.30;;;1.75;;
67554;SDS011;54385;53.516;49.456;2023-09-19T13:54:31;2.22;;;1.70;;
67554;SDS011;54385;53.516;49.456;2023-09-19T13:56:58;3.38;;;1.80;;
67554;SDS011;54385;53.516;49.456;2023-09-19T13:59:25;2.28;;;1.60;;
67554;SDS011;54385;53.516;49.456;2023-09-19T14:01:57;2.72;;;1.73;;
67554;SDS011;54385;53.516;49.456;2023-09-19T14:06:54;1.92;;;1.67;;
67554;SDS011;54385;53.516;49.456;2023-09-19T14:09:23;1.63;;;1.50;;
67554;SDS011;54385;53.516;49.456;2023-09-19T14:11:54;2.30;;;1.48;;
67554;SDS011;54385;53.516;49.456;2023-09-19T14:14:23;2.00;;;1.58;;
67554;SDS011;54385;53.516;49.456;2023-09-19T14:16:49;2.45;;;2.00;;
67554;SDS011;54385;53.516;49.456;2023-09-19T14:19:18;2.05;;;1.27;;
67554;SDS011;54385;53.516;49.456;2023-09-19T14:21:45;2.55;;;1.70;;
67554;SDS011;54385;53.516;49.456;2023-09-19T14:24:18;1.92;;;1.42;;
67554;SDS011;54385;53.516;49.456;2023-09-19T14:26:45;1.98;;;1.50;;
67554;SDS011;54385;53.516;49.456;2023-09-19T14:29:12;2.33;;;1.60;;
67554;SDS011;54385;53.516;49.456;2023-09-19T14:31:43;2.58;;;1.80;;
67554;SDS011;54385;53.516;49.456;2023-09-19T14:34:10;2.88;;;1.65;;
67554;SDS011;54385;53.516;49.456;2023-09-19T14:36:39;2.35;;;1.67;;
67554;SDS011;54385;53.516;49.456;2023-09-19T14:39:06;2.40;;;1.70;;
67554;SDS011;54385;53.516;49.456;2023-09-19T14:41:34;2.47;;;1.55;;
67554;SDS011;54385;53.516;49.456;2023-09-19T14:44:05;1.90;;;1.42;;
67554;SDS011;54385;53.516;49.456;2023-09-19T14:46:31;2.35;;;1.52;;
67554;SDS011;54385;53.516;49.456;2023-09-19T14:48:58;2.17;;;1.50;;
67554;SDS011;54385;53.516;49.456;2023-09-19T14:51:28;1.88;;;1.40;;
67554;SDS011;54385;53.516;49.456;2023-09-19T14:53:56;1.83;;;1.50;;
67554;SDS011;54385;53.516;49.456;2023-09-19T14:56:23;2.33;;;1.50;;
67554;SDS011;54385;53.516;49.456;2023-09-19T14:58:51;1.85;;;1.38;;
67554;SDS011;54385;53.516;49.456;2023-09-19T15:01:18;2.15;;;1.52;;
67554;SDS011;54385;53.516;49.456;2023-09-19T15:03:45;2.10;;;1.50;;
67554;SDS011;54385;53.516;49.456;2023-09-19T15:06:12;2.72;;;1.45;;
67554;SDS011;54385;53.516;49.456;2023-09-19T15:08:40;2.00;;;1.50;;
67554;SDS011;54385;53.516;49.456;2023-09-19T15:11:11;1.63;;;1.33;;
67554;SDS011;54385;53.516;49.456;2023-09-19T15:13:39;1.95;;;1.42;;
67554;SDS011;54385;53.516;49.456;2023-09-19T15:16:06;2.05;;;1.33;;
67554;SDS011;54385;53.516;49.456;2023-09-19T15:18:37;2.13;;;1.30;;
67554;SDS011;54385;53.516;49.456;2023-09-19T15:21:08;1.98;;;1.40;;
67554;SDS011;54385;53.516;49.456;2023-09-19T15:23:37;2.28;;;1.70;;
67554;SDS011;54385;53.516;49.456;2023-09-19T15:26:05;1.83;;;1.40;;
67554;SDS011;54385;53.516;49.456;2023-09-19T15:28:33;1.83;;;1.50;;
67554;SDS011;54385;53.516;49.456;2023-09-19T15:31:06;2.35;;;1.63;;
67554;SDS011;54385;53.516;49.456;2023-09-19T15:33:35;1.92;;;1.42;;
67554;SDS011;54385;53.516;49.456;2023-09-19T15:36:09;1.98;;;1.50;;
67554;SDS011;54385;53.516;49.456;2023-09-19T15:38:58;1.85;;;1.45;;
67554;SDS011;54385;53.516;49.456;2023-09-19T15:41:32;2.30;;;1.48;;
67554;SDS011;54385;53.516;49.456;2023-09-19T15:44:02;2.00;;;1.60;;
67554;SDS011;54385;53.516;49.456;2023-09-19T15:46:32;1.98;;;1.38;;